Time;durP1;ratioP1;P1;durP2;ratioP2;P2;SDS_P1;SDS_P2;PMS_P1;PMS_P2;Temp;Humidity;BMP_temperature;BMP_pressure;BME280_temperature;BME280_humidity;BME280_pressure;Samples;Min_cycle;Max_cycle;Signal;HPM_P1;HPM_P2
2023/09/23 00:01:38;;;;;;;25.80;13.30;;;;;;;26.80;38.34;100291.12;108172;1254;70583;-65
2023/09/23 00:04:06;;;;;;;25.80;12.00;;;;;;;26.73;38.55;100295.10;108181;1256;61757;-68
2023/09/23 00:06:34;;;;;;;23.80;13.90;;;;;;;26.49;39.12;100296.27;108152;1251;60379;-66
2023/09/23 00:09:02;;;;;;;20.00;11.70;;;;;;;26.16;39.87;100299.70;108193;1251;73006;-66
2023/09/23 00:11:30;;;;;;;22.80;12.80;;;;;;;25.88;40.21;100292.27;108173;1251;69197;-67
2023/09/23 00:13:57;;;;;;;24.70;13.40;;;;;;;26.21;39.65;100292.59;108150;1252;72655;-68
2023/09/23 00:16:25;;;;;;;19.10;12.50;;;;;;;26.36;39.48;100291.84;108235;1251;61656;-65
2023/09/23 00:18:53;;;;;;;24.30;13.40;;;;;;;26.44;39.20;100292.95;108167;1251;60310;-66
2023/09/23 00:21:21;;;;;;;22.80;11.80;;;;;;;26.30;39.71;100290.81;108189;1251;72492;-67
2023/09/23 00:23:48;;;;;;;30.30;13.80;;;;;;;26.18;39.87;100293.23;108214;1251;69206;-65
2023/09/23 00:26:17;;;;;;;28.30;13.50;;;;;;;26.35;39.62;100298.57;108187;1251;72699;-67
2023/09/23 00:28:47;;;;;;;23.90;12.90;;;;;;;25.51;40.84;100302.11;108191;1251;61895;-66
2023/09/23 00:31:15;;;;;;;24.90;12.80;;;;;;;25.24;41.74;100298.44;108182;1251;60326;-65
2023/09/23 00:33:44;;;;;;;25.10;13.40;;;;;;;25.63;41.14;100295.27;108090;1257;73829;-67
2023/09/23 00:36:11;;;;;;;20.70;12.80;;;;;;;25.94;40.66;100295.57;108103;1251;70332;-66
2023/09/23 00:38:40;;;;;;;28.20;13.30;;;;;;;26.07;40.27;100301.67;108216;1253;72690;-66
2023/09/23 00:41:08;;;;;;;23.60;12.50;;;;;;;26.08;40.39;100302.92;108199;1251;61641;-66
2023/09/23 00:43:36;;;;;;;21.70;13.50;;;;;;;26.15;40.39;100300.77;108140;1251;60012;-67
2023/09/23 00:46:05;;;;;;;24.20;12.80;;;;;;;26.31;40.07;100299.37;108317;1256;73859;-67
2023/09/23 00:48:43;;;;;;;21.90;12.80;;;;;;;26.32;40.07;100299.41;108150;1257;68706;-66
2023/09/23 00:51:11;;;;;;;20.60;14.30;;;;;;;26.05;40.51;100303.75;108228;1252;72639;-67
2023/09/23 00:53:42;;;;;;;22.80;13.70;;;;;;;26.08;40.65;100302.31;108192;1256;61806;-66
2023/09/23 00:56:09;;;;;;;32.30;14.00;;;;;;;26.27;40.33;100292.22;107957;1251;60364;-67
2023/09/23 00:58:38;;;;;;;25.00;13.90;;;;;;;26.21;40.33;100288.26;108112;1251;73859;-66
2023/09/23 01:01:10;;;;;;;30.70;15.00;;;;;;;26.29;40.31;100291.39;108236;1251;69412;-67
2023/09/23 01:03:38;;;;;;;23.10;14.10;;;;;;;26.27;40.23;100294.16;108268;1251;72714;-66
2023/09/23 01:06:15;;;;;;;27.50;13.90;;;;;;;25.88;40.82;100301.64;108187;1251;61665;-67
2023/09/23 01:08:45;;;;;;;25.40;14.00;;;;;;;25.79;41.15;100301.73;108234;1251;60147;-67
2023/09/23 01:11:14;;;;;;;24.40;13.50;;;;;;;26.16;40.49;100298.86;108329;1251;73057;-67
2023/09/23 01:13:44;;;;;;;18.70;12.60;;;;;;;26.13;40.50;100298.96;108158;1251;69954;-66
2023/09/23 01:16:12;;;;;;;34.40;15.20;;;;;;;25.97;40.84;100300.19;108172;1251;72642;-67
2023/09/23 01:18:44;;;;;;;27.70;14.70;;;;;;;25.95;41.13;100304.67;108033;1257;61646;-66
2023/09/23 01:21:13;;;;;;;23.20;13.90;;;;;;;25.98;41.34;100308.15;108265;1251;60368;-66
2023/09/23 01:23:43;;;;;;;20.70;13.60;;;;;;;26.27;40.87;100306.02;108361;1251;73840;-66
2023/09/23 01:26:11;;;;;;;25.60;14.60;;;;;;;26.33;40.58;100316.05;108287;1251;69961;-66
2023/09/23 01:28:39;;;;;;;19.80;12.40;;;;;;;25.98;41.50;100320.59;108229;1251;71751;-67
2023/09/23 01:31:07;;;;;;;21.60;14.10;;;;;;;25.90;41.54;100317.47;108181;1251;64157;-67
2023/09/23 01:33:35;;;;;;;25.90;14.10;;;;;;;26.18;41.24;100313.11;108283;1251;60534;-67
2023/09/23 01:36:03;;;;;;;20.30;13.70;;;;;;;26.16;41.71;100312.89;108214;1251;73907;-66
2023/09/23 01:38:31;;;;;;;22.00;15.10;;;;;;;25.91;42.06;100314.11;108082;1251;69933;-67
2023/09/23 01:41:01;;;;;;;27.50;15.50;;;;;;;25.88;42.20;100311.36;108339;1251;73180;-66
2023/09/23 01:43:30;;;;;;;26.60;14.40;;;;;;;25.84;42.30;100319.06;108195;1251;61617;-66
2023/09/23 01:46:03;;;;;;;23.90;14.70;;;;;;;25.71;42.73;100319.47;108404;1251;60467;-66
2023/09/23 01:48:31;;;;;;;24.40;15.10;;;;;;;25.65;43.27;100326.11;108282;1251;73870;-65
2023/09/23 01:50:59;;;;;;;27.60;15.20;;;;;;;25.81;42.78;100328.36;108253;1251;69062;-65
2023/09/23 01:53:28;;;;;;;22.60;13.50;;;;;;;25.66;43.20;100331.73;108190;1252;72911;-66
2023/09/23 01:55:56;;;;;;;23.40;14.90;;;;;;;25.69;43.23;100333.52;108274;1251;61717;-67
2023/09/23 01:58:24;;;;;;;28.90;15.70;;;;;;;25.60;43.54;100335.02;108363;1251;60171;-65
2023/09/23 02:00:54;;;;;;;24.00;13.80;;;;;;;25.68;43.61;100335.16;108228;1251;73748;-67
2023/09/23 02:03:23;;;;;;;23.20;15.80;;;;;;;25.84;43.18;100330.82;108241;1251;68786;-65
2023/09/23 02:05:52;;;;;;;25.80;15.00;;;;;;;25.95;43.03;100332.77;108151;1251;71657;-66
2023/09/23 02:08:19;;;;;;;31.20;16.20;;;;;;;26.34;42.28;100332.80;108149;1251;61669;-66
2023/09/23 02:10:48;;;;;;;27.20;15.80;;;;;;;26.43;42.06;100334.44;108205;1251;59211;-66
2023/09/23 02:13:18;;;;;;;27.80;15.60;;;;;;;26.22;42.53;100339.08;108107;1251;73598;-65
2023/09/23 02:15:46;;;;;;;24.00;16.00;;;;;;;25.98;43.03;100339.98;108227;1251;69021;-66
2023/09/23 02:18:14;;;;;;;32.10;16.40;;;;;;;26.25;42.44;100337.92;108177;1251;72740;-66
2023/09/23 02:20:43;;;;;;;25.50;15.90;;;;;;;26.00;42.86;100336.20;108241;1251;60758;-67
2023/09/23 02:23:11;;;;;;;25.20;14.90;;;;;;;25.84;43.19;100343.75;108153;1256;60483;-65
2023/09/23 02:25:38;;;;;;;31.10;16.30;;;;;;;25.88;43.29;100342.09;108275;1251;72263;-65
2023/09/23 02:28:06;;;;;;;31.10;15.40;;;;;;;25.92;43.32;100339.34;109418;1251;69484;-66
2023/09/23 02:30:33;;;;;;;31.30;15.80;;;;;;;25.93;43.12;100334.03;109461;1251;72929;-66
2023/09/23 02:33:02;;;;;;;34.30;16.60;;;;;;;26.12;42.92;100333.08;109422;1251;61660;-66
2023/09/23 02:35:30;;;;;;;28.60;15.90;;;;;;;25.65;43.79;100338.35;109411;1252;60047;-65
2023/09/23 02:37:58;;;;;;;27.20;16.40;;;;;;;25.58;43.89;100335.66;109417;1252;73110;-65
2023/09/23 02:40:27;;;;;;;31.70;17.00;;;;;;;25.55;43.81;100332.55;109431;1252;70492;-67
2023/09/23 02:42:57;;;;;;;29.60;17.10;;;;;;;25.41;44.08;100329.94;109416;1251;72833;-66
2023/09/23 02:45:25;;;;;;;29.60;15.90;;;;;;;25.57;43.98;100328.17;109316;1252;61354;-65
2023/09/23 02:47:53;;;;;;;28.90;16.10;;;;;;;25.59;43.85;100333.38;109448;1252;58712;-65
2023/09/23 02:50:21;;;;;;;26.20;16.00;;;;;;;25.60;43.78;100333.63;109462;1252;73902;-65
2023/09/23 02:52:49;;;;;;;19.70;12.90;;;;;;;25.51;43.94;100339.39;109333;1254;69753;-66
2023/09/23 02:55:19;;;;;;;22.60;15.80;;;;;;;25.53;43.83;100344.94;109271;1252;70546;-66
2023/09/23 02:57:54;;;;;;;29.40;17.10;;;;;;;25.44;44.02;100348.48;109411;1252;60412;-68
2023/09/23 03:00:23;;;;;;;26.90;16.30;;;;;;;25.34;44.32;100353.38;109331;1252;59084;-66
2023/09/23 03:02:57;;;;;;;23.00;15.80;;;;;;;25.34;44.32;100352.13;109443;1252;73766;-67
2023/09/23 03:05:30;;;;;;;18.90;13.70;;;;;;;25.48;44.00;100358.49;109417;1252;69034;-66
2023/09/23 03:07:59;;;;;;;27.80;16.30;;;;;;;25.38;44.08;100360.60;109361;1252;72757;-67
2023/09/23 03:10:34;;;;;;;33.90;17.50;;;;;;;25.43;44.13;100362.43;109058;1253;60416;-66
2023/09/23 03:13:04;;;;;;;28.10;16.30;;;;;;;25.51;43.90;100365.42;109355;1252;58802;-66
2023/09/23 03:15:46;;;;;;;33.80;17.10;;;;;;;24.78;45.26;100368.34;109323;1252;73907;-66
2023/09/23 03:18:14;;;;;;;29.80;17.00;;;;;;;24.82;45.53;100368.85;109425;1252;70043;-66
2023/09/23 03:20:43;;;;;;;25.30;16.90;;;;;;;24.91;45.47;100371.42;109400;1252;71190;-65
2023/09/23 03:23:12;;;;;;;29.70;17.40;;;;;;;24.94;45.15;100370.30;109322;1252;60545;-65
2023/09/23 03:29:18;;;;;;;21.80;16.50;;;;;;;24.44;46.61;100364.63;104859;1291;601293;-64
2023/09/23 03:31:45;;;;;;;25.50;17.40;;;;;;;24.34;47.11;100362.49;107410;1264;61810;-63
2023/09/23 03:34:15;;;;;;;31.30;18.60;;;;;;;24.28;47.18;100365.84;107337;1268;60000;-65
2023/09/23 03:39:01;;;;;;;33.30;18.80;;;;;;;22.26;52.03;100367.57;105532;1282;602633;-64
2023/09/23 03:41:28;;;;;;;24.60;14.80;;;;;;;23.11;50.09;100364.88;107264;1265;59149;-65
2023/09/23 03:43:56;;;;;;;30.30;19.80;;;;;;;23.05;50.08;100364.52;107306;1266;60176;-65
2023/09/23 03:46:23;;;;;;;33.30;19.10;;;;;;;22.84;50.64;100364.41;107293;1264;71105;-65
2023/09/23 03:48:50;;;;;;;31.80;19.50;;;;;;;22.79;50.96;100364.73;107916;1256;70248;-65
2023/09/23 03:51:17;;;;;;;25.70;17.90;;;;;;;22.87;51.00;100372.32;107625;1253;204083;-66
2023/09/23 03:53:44;;;;;;;26.20;17.30;;;;;;;22.94;50.72;100371.14;108049;1253;60676;-66
2023/09/23 03:56:10;;;;;;;24.50;16.10;;;;;;;23.00;51.10;100378.91;108093;1253;60011;-66
2023/09/23 03:58:38;;;;;;;25.50;18.40;;;;;;;23.32;50.35;100379.64;108111;1256;72838;-66
2023/09/23 04:01:10;;;;;;;35.40;19.90;;;;;;;23.21;50.55;100376.15;108116;1253;68134;-66
2023/09/23 04:03:37;;;;;;;27.80;18.50;;;;;;;23.20;50.43;100385.45;108038;1254;72435;-66
2023/09/23 04:06:05;;;;;;;26.40;17.90;;;;;;;23.08;50.92;100387.21;108022;1253;61757;-66
2023/09/23 04:08:32;;;;;;;30.00;17.70;;;;;;;23.20;50.93;100383.59;108100;1253;60157;-65
2023/09/23 04:12:31;;;;;;;28.60;18.30;;;;;;;21.17;56.34;100391.34;106457;1285;612502;-93
2023/09/23 04:15:22;;;;;;;29.10;17.80;;;;;;;22.40;53.21;100393.58;109095;1260;60589;-94
2023/09/23 04:18:11;;;;;;;29.10;19.00;;;;;;;22.59;53.17;100393.60;108961;1260;58935;-94
2023/09/23 04:21:00;;;;;;;34.20;18.30;;;;;;;22.82;53.01;100392.59;108843;1260;71010;-94
2023/09/23 04:23:57;;;;;;;28.80;18.40;;;;;;;23.10;52.37;100394.55;109046;1256;84937;-66
2023/09/23 04:26:25;;;;;;;33.80;17.90;;;;;;;23.43;51.46;100395.14;107412;1260;224572;-67
2023/09/23 04:28:52;;;;;;;35.30;16.60;;;;;;;23.73;50.87;100392.54;107581;1260;61868;-67
2023/09/23 04:31:19;;;;;;;34.60;17.20;;;;;;;23.94;50.33;100398.36;107546;1260;60131;-66
2023/09/23 04:33:47;;;;;;;22.70;14.80;;;;;;;24.13;49.76;100399.79;107585;1260;73201;-66
2023/09/23 04:36:14;;;;;;;25.90;16.50;;;;;;;24.39;49.05;100398.83;107546;1260;70815;-67
2023/09/23 04:38:40;;;;;;;27.90;16.70;;;;;;;24.78;48.16;100398.47;107530;1260;71379;-67
2023/09/23 04:41:07;;;;;;;27.20;15.70;;;;;;;25.29;47.22;100397.77;107603;1260;62100;-67
2023/09/23 04:43:34;;;;;;;28.70;15.40;;;;;;;25.59;46.24;100396.64;107680;1260;60220;-66
2023/09/23 04:46:01;;;;;;;21.10;14.70;;;;;;;25.43;46.40;100401.39;107611;1260;72791;-67
2023/09/23 04:48:30;;;;;;;25.70;15.10;;;;;;;25.55;46.06;100398.08;107669;1260;70219;-67
2023/09/23 04:50:57;;;;;;;24.10;15.30;;;;;;;26.02;45.40;100404.91;107591;1260;72544;-67
2023/09/23 04:53:24;;;;;;;21.20;13.90;;;;;;;26.24;44.87;100407.98;107517;1260;61748;-67
2023/09/23 04:55:51;;;;;;;21.70;14.30;;;;;;;26.52;44.00;100407.42;107518;1260;59086;-67
2023/09/23 04:58:18;;;;;;;48.70;15.20;;;;;;;26.02;44.92;100408.00;107573;1260;72832;-66
2023/09/23 05:00:45;;;;;;;24.40;14.30;;;;;;;26.39;44.23;100406.19;107623;1260;57835;-68
2023/09/23 05:03:11;;;;;;;21.90;13.30;;;;;;;26.47;43.41;100402.45;107556;1260;71188;-67
2023/09/23 05:05:38;;;;;;;22.80;13.50;;;;;;;26.46;43.46;100401.89;107599;1260;61992;-67
2023/09/23 05:08:09;;;;;;;19.50;11.90;;;;;;;26.69;43.07;100403.36;107583;1260;60723;-67
2023/09/23 05:10:36;;;;;;;26.90;12.60;;;;;;;27.12;42.01;100400.30;107416;1260;73069;-68
2023/09/23 05:13:03;;;;;;;25.40;11.90;;;;;;;27.38;41.61;100401.90;107574;1261;69279;-69
2023/09/23 05:15:30;;;;;;;19.50;11.50;;;;;;;27.89;40.48;100402.74;107918;1257;73674;-68
2023/09/23 05:17:57;;;;;;;21.90;11.70;;;;;;;28.03;39.79;100411.63;107913;1255;59377;-68
2023/09/23 05:20:25;;;;;;;19.00;11.70;;;;;;;28.10;38.99;100406.64;107992;1256;60006;-67
2023/09/23 05:22:52;;;;;;;21.50;12.10;;;;;;;28.15;39.18;100409.41;107941;1256;72926;-67
2023/09/23 05:25:20;;;;;;;21.00;11.70;;;;;;;28.42;38.83;100412.06;107959;1256;70122;-68
2023/09/23 05:27:46;;;;;;;19.70;10.90;;;;;;;28.67;38.22;100413.76;107770;1257;72654;-68
2023/09/23 05:30:13;;;;;;;24.30;11.40;;;;;;;28.91;37.61;100420.52;107889;1257;59493;-67
2023/09/23 05:32:39;;;;;;;32.00;11.10;;;;;;;29.17;37.70;100424.36;107916;1256;60079;-68
2023/09/23 05:35:10;;;;;;;23.20;11.10;;;;;;;29.44;36.81;100424.45;107922;1257;72896;-67
2023/09/23 05:37:37;;;;;;;;;;;;;;;29.52;36.70;100420.98;107951;1257;69198;-68
2023/09/23 05:40:27;;;;;;;18.00;9.90;;;;;;;29.84;36.51;100420.16;107907;1256;72866;-68
2023/09/23 05:42:53;;;;;;;20.10;10.80;;;;;;;29.96;36.36;100424.77;107918;1257;60261;-68
2023/09/23 05:45:24;;;;;;;19.60;10.50;;;;;;;30.17;35.98;100431.03;107966;1256;60310;-68
2023/09/23 05:47:52;;;;;;;23.30;11.10;;;;;;;30.40;35.60;100431.72;108012;1257;73100;-69
2023/09/23 05:50:20;;;;;;;21.90;11.70;;;;;;;30.53;35.59;100437.03;107950;1260;71190;-67
2023/09/23 05:52:47;;;;;;;14.80;10.10;;;;;;;30.60;35.29;100434.04;107902;1260;72358;-67
2023/09/23 05:55:14;;;;;;;23.20;11.00;;;;;;;30.69;35.27;100426.27;107905;1256;60286;-68
2023/09/23 05:57:40;;;;;;;22.50;10.60;;;;;;;30.73;35.12;100433.54;107990;1257;60316;-68
2023/09/23 06:00:08;;;;;;;20.60;10.70;;;;;;;30.81;35.05;100429.38;107939;1256;72932;-68
2023/09/23 06:02:35;;;;;;;22.70;10.20;;;;;;;31.14;34.72;100424.73;107893;1256;70648;-67
2023/09/23 06:05:02;;;;;;;27.60;10.20;;;;;;;31.43;33.93;100418.18;107941;1256;71070;-68
2023/09/23 06:07:29;;;;;;;17.30;9.60;;;;;;;31.89;33.61;100417.94;107642;1258;60031;-68
2023/09/23 06:09:58;;;;;;;23.90;10.00;;;;;;;32.31;32.66;100418.83;107912;1257;60152;-68
2023/09/23 06:12:31;;;;;;;17.20;8.50;;;;;;;32.58;32.29;100420.58;107873;1256;72931;-68
2023/09/23 06:14:58;;;;;;;16.00;8.70;;;;;;;32.75;31.99;100421.16;107916;1260;69004;-68
2023/09/23 06:17:27;;;;;;;20.30;9.00;;;;;;;33.14;31.50;100426.96;107882;1257;72502;-68
2023/09/23 06:19:57;;;;;;;18.90;8.70;;;;;;;33.32;30.96;100422.48;107924;1257;59503;-67
2023/09/23 06:22:24;;;;;;;19.40;8.50;;;;;;;33.50;30.74;100423.70;107915;1257;60186;-67
2023/09/23 06:24:51;;;;;;;19.60;8.30;;;;;;;33.68;30.59;100427.80;107916;1256;72853;-67
2023/09/23 06:27:18;;;;;;;23.10;8.20;;;;;;;33.94;30.30;100431.13;107769;1256;68834;-69
2023/09/23 06:29:44;;;;;;;15.50;8.10;;;;;;;34.20;29.96;100433.45;107999;1256;63844;-68
2023/09/23 06:32:11;;;;;;;23.50;8.20;;;;;;;34.25;29.60;100436.23;108006;1255;59222;-68
2023/09/23 06:34:38;;;;;;;20.30;8.30;;;;;;;34.44;29.76;100435.70;108041;1255;59355;-68
2023/09/23 06:37:05;;;;;;;17.90;8.10;;;;;;;34.71;29.40;100435.86;108036;1257;63765;-68
2023/09/23 06:39:31;;;;;;;18.80;7.90;;;;;;;34.89;29.14;100431.02;107977;1257;60307;-69
2023/09/23 06:41:58;;;;;;;22.30;7.90;;;;;;;35.05;29.13;100433.09;107859;1257;59521;-69
2023/09/23 06:44:25;;;;;;;14.90;7.60;;;;;;;35.18;28.96;100438.21;107839;1256;59082;-69
2023/09/23 06:46:52;;;;;;;17.10;7.80;;;;;;;35.21;28.78;100440.56;107995;1255;59595;-69
2023/09/23 06:49:19;;;;;;;18.60;7.40;;;;;;;35.43;28.80;100438.34;108075;1257;64112;-68
2023/09/23 06:51:45;;;;;;;18.50;6.40;;;;;;;35.40;28.38;100444.89;107990;1257;61498;-67
2023/09/23 06:54:12;;;;;;;23.30;7.20;;;;;;;34.64;28.88;100449.92;107974;1257;64112;-68
2023/09/23 06:56:39;;;;;;;12.40;7.10;;;;;;;34.14;29.78;100452.39;107845;1257;59631;-68
2023/09/23 06:59:06;;;;;;;19.20;6.80;;;;;;;34.03;29.94;100455.45;107962;1255;59628;-68
2023/09/23 07:01:34;;;;;;;19.10;6.70;;;;;;;33.68;30.43;100451.15;107911;1262;64461;-68
2023/09/23 07:04:02;;;;;;;12.60;6.70;;;;;;;33.91;30.31;100451.75;107992;1259;70092;-68
2023/09/23 07:06:29;;;;;;;14.20;7.10;;;;;;;34.28;29.64;100452.33;107952;1257;64179;-68
2023/09/23 07:08:55;;;;;;;13.20;6.60;;;;;;;34.62;29.28;100456.54;107958;1259;59081;-67
2023/09/23 07:11:23;;;;;;;15.50;6.70;;;;;;;34.80;29.13;100454.49;107933;1257;59644;-69
2023/09/23 07:13:50;;;;;;;13.70;6.20;;;;;;;34.74;29.21;100460.66;107867;1257;64435;-68
2023/09/23 07:16:16;;;;;;;15.60;6.40;;;;;;;34.51;29.45;100459.98;107983;1259;61532;-68
2023/09/23 07:18:46;;;;;;;17.80;6.90;;;;;;;34.70;29.37;100451.52;107929;1257;63739;-69
2023/09/23 07:21:12;;;;;;;10.90;5.90;;;;;;;34.88;29.05;100452.89;108016;1255;59489;-69
2023/09/23 07:23:39;;;;;;;11.20;6.40;;;;;;;35.18;29.00;100455.77;107975;1255;59398;-68
2023/09/23 07:26:06;;;;;;;15.20;6.70;;;;;;;35.44;28.75;100461.91;107976;1257;65285;-67
2023/09/23 07:28:33;;;;;;;18.10;6.80;;;;;;;35.53;28.50;100466.28;107891;1260;61422;-68
2023/09/23 07:31:00;;;;;;;23.60;7.40;;;;;;;35.67;28.52;100460.86;107891;1256;72736;-68
2023/09/23 07:33:27;;;;;;;17.90;6.70;;;;;;;35.69;28.35;100458.98;107916;1257;59481;-68
2023/09/23 07:35:54;;;;;;;15.80;6.60;;;;;;;35.72;28.40;100463.70;107950;1260;59546;-68
2023/09/23 07:38:21;;;;;;;14.40;6.70;;;;;;;35.67;28.52;100464.97;107924;1255;64399;-68
2023/09/23 07:40:48;;;;;;;16.70;6.40;;;;;;;35.22;28.75;100462.58;107962;1257;61529;-68
2023/09/23 07:43:15;;;;;;;12.70;6.00;;;;;;;35.56;28.67;100463.16;107736;1260;63923;-69
2023/09/23 07:45:42;;;;;;;23.80;6.60;;;;;;;35.62;28.64;100462.88;107918;1257;59507;-69
2023/09/23 07:48:10;;;;;;;12.40;5.40;;;;;;;35.77;28.45;100462.77;107903;1260;59635;-69
2023/09/23 07:50:36;;;;;;;14.40;5.50;;;;;;;35.90;28.05;100458.64;108063;1260;64465;-68
2023/09/23 07:53:03;;;;;;;16.80;5.50;;;;;;;36.01;27.91;100459.96;108007;1260;61471;-68
2023/09/23 07:55:30;;;;;;;13.00;5.30;;;;;;;35.91;28.09;100461.70;107915;1262;64503;-68
2023/09/23 07:57:57;;;;;;;14.00;5.20;;;;;;;35.37;28.63;100469.06;107856;1260;59517;-68
2023/09/23 08:00:24;;;;;;;14.20;5.40;;;;;;;34.42;30.14;100463.57;107862;1256;59714;-68
2023/09/23 08:02:54;;;;;;;21.20;6.10;;;;;;;34.14;30.52;100461.17;107897;1257;64265;-67
2023/09/23 08:05:24;;;;;;;18.20;6.40;;;;;;;33.52;31.38;100458.96;107888;1257;69248;-68
2023/09/23 08:07:53;;;;;;;15.70;5.60;;;;;;;33.60;31.43;100456.13;107817;1260;63955;-68
2023/09/23 08:10:20;;;;;;;12.90;5.00;;;;;;;34.15;30.75;100462.23;107893;1257;59032;-68
2023/09/23 08:12:47;;;;;;;13.30;5.30;;;;;;;34.38;30.47;100458.52;107874;1258;60420;-68
2023/09/23 08:15:13;;;;;;;16.30;5.50;;;;;;;34.16;30.74;100459.98;107816;1258;64489;-68
2023/09/23 08:17:40;;;;;;;14.60;5.40;;;;;;;33.57;31.46;100452.41;107908;1260;70303;-69
2023/09/23 08:20:17;;;;;;;10.40;5.60;;;;;;;33.30;31.93;100455.63;107917;1257;71782;-69
2023/09/23 08:22:45;;;;;;;12.70;5.60;;;;;;;33.55;31.59;100453.66;107942;1258;60257;-67
2023/09/23 08:25:13;;;;;;;11.60;5.80;;;;;;;33.66;31.59;100453.80;107977;1258;59778;-68
2023/09/23 08:27:40;;;;;;;12.90;5.30;;;;;;;34.39;30.59;100449.56;107974;1257;73658;-69
2023/09/23 08:30:11;;;;;;;16.10;5.20;;;;;;;34.87;29.82;100453.42;107951;1260;61476;-68
2023/09/23 08:32:38;;;;;;;8.50;4.60;;;;;;;35.44;29.06;100448.42;107991;1258;64461;-68
2023/09/23 08:35:06;;;;;;;14.70;5.10;;;;;;;35.63;28.49;100442.30;107867;1261;60416;-67
2023/09/23 08:37:33;;;;;;;17.60;5.20;;;;;;;35.74;28.48;100444.61;107875;1257;60296;-68
2023/09/23 08:40:00;;;;;;;12.80;4.90;;;;;;;36.03;27.99;100442.66;107974;1258;63714;-68
2023/09/23 08:42:27;;;;;;;16.70;5.10;;;;;;;36.28;27.38;100436.55;107861;1258;61663;-68
2023/09/23 08:44:54;;;;;;;13.60;5.30;;;;;;;36.41;27.31;100439.23;107918;1260;64030;-68
2023/09/23 08:47:20;;;;;;;12.20;4.80;;;;;;;36.91;27.02;100440.09;107823;1257;60409;-68
2023/09/23 08:49:49;;;;;;;12.30;4.90;;;;;;;37.10;26.40;100436.59;107973;1257;60348;-69
2023/09/23 08:52:17;;;;;;;16.00;4.70;;;;;;;37.32;26.09;100431.03;107922;1257;63870;-68
2023/09/23 08:54:47;;;;;;;24.30;5.50;;;;;;;37.83;25.90;100437.20;107909;1260;61435;-69
2023/09/23 08:57:16;;;;;;;13.60;5.20;;;;;;;38.11;25.36;100441.21;107895;1260;63873;-69
2023/09/23 08:59:43;;;;;;;11.90;5.00;;;;;;;38.03;25.07;100434.99;107937;1258;60328;-68
2023/09/23 09:02:12;;;;;;;18.10;5.30;;;;;;;38.06;25.28;100430.48;107990;1257;60524;-69
2023/09/23 09:04:39;;;;;;;15.20;5.10;;;;;;;38.03;25.39;100433.13;107960;1260;65257;-68
2023/09/23 09:07:06;;;;;;;12.00;5.20;;;;;;;38.01;25.51;100426.52;107968;1259;60411;-68
2023/09/23 09:09:37;;;;;;;15.30;5.00;;;;;;;37.64;25.70;100428.57;107938;1256;63904;-69
2023/09/23 09:12:04;;;;;;;12.30;5.70;;;;;;;37.74;25.73;100424.65;107941;1257;60328;-68
2023/09/23 09:14:32;;;;;;;11.00;5.20;;;;;;;37.80;25.54;100431.27;107869;1257;60462;-68
2023/09/23 09:16:59;;;;;;;11.50;5.50;;;;;;;37.18;26.12;100431.94;107930;1256;65094;-67
2023/09/23 09:19:26;;;;;;;9.60;5.10;;;;;;;36.60;26.92;100437.41;107951;1258;60409;-67
2023/09/23 09:21:54;;;;;;;11.70;4.60;;;;;;;36.51;27.00;100431.04;107694;1261;64083;-69
2023/09/23 09:24:22;;;;;;;15.50;5.20;;;;;;;36.21;27.52;100431.05;107901;1260;60222;-67
2023/09/23 09:26:49;;;;;;;15.90;5.60;;;;;;;36.19;27.74;100424.75;107892;1258;60578;-69
2023/09/23 09:29:16;;;;;;;12.60;5.40;;;;;;;36.40;27.46;100422.20;107900;1258;65375;-69
2023/09/23 09:31:43;;;;;;;13.20;5.40;;;;;;;36.24;27.73;100419.31;107921;1257;61790;-69
2023/09/23 09:34:11;;;;;;;12.30;5.20;;;;;;;35.84;28.22;100427.52;107898;1256;64125;-68
2023/09/23 09:36:38;;;;;;;12.90;5.50;;;;;;;35.55;28.52;100434.27;108013;1259;59532;-68
2023/09/23 09:39:08;;;;;;;12.60;5.40;;;;;;;35.72;28.15;100435.22;107916;1259;59116;-69
2023/09/23 09:41:44;;;;;;;11.60;5.20;;;;;;;35.70;28.22;100440.73;107929;1257;65242;-69
2023/09/23 09:44:12;;;;;;;13.50;5.30;;;;;;;35.82;28.14;100434.00;107896;1257;61546;-69
2023/09/23 09:46:39;;;;;;;12.10;5.30;;;;;;;35.67;28.23;100434.46;107896;1257;63901;-68
2023/09/23 09:49:06;;;;;;;10.80;5.30;;;;;;;35.47;28.60;100434.27;107675;1256;60323;-68
2023/09/23 09:51:33;;;;;;;12.60;5.10;;;;;;;35.53;28.70;100438.93;107879;1257;60361;-69
2023/09/23 09:54:00;;;;;;;13.00;5.70;;;;;;;35.74;28.12;100430.32;107783;1257;64410;-69
2023/09/23 09:56:26;;;;;;;9.70;5.80;;;;;;;35.92;28.08;100425.39;107799;1257;60436;-69
2023/09/23 09:58:54;;;;;;;11.80;5.70;;;;;;;36.39;27.36;100420.97;107677;1257;62914;-69
2023/09/23 10:01:20;;;;;;;10.80;5.80;;;;;;;36.77;27.08;100423.35;107899;1257;60305;-69
2023/09/23 10:03:49;;;;;;;10.20;5.00;;;;;;;37.03;26.84;100426.33;107698;1257;59500;-69
2023/09/23 10:06:19;;;;;;;14.00;6.00;;;;;;;37.01;26.67;100422.23;107949;1256;65166;-69
2023/09/23 10:08:49;;;;;;;13.00;4.60;;;;;;;37.16;26.63;100422.55;107986;1257;61479;-68
2023/09/23 10:11:15;;;;;;;17.00;5.00;;;;;;;37.09;26.45;100424.94;107865;1257;62742;-69
2023/09/23 10:13:42;;;;;;;11.80;4.90;;;;;;;36.94;26.48;100420.21;107842;1256;60434;-69
2023/09/23 10:16:13;;;;;;;13.10;5.60;;;;;;;37.13;26.40;100424.05;107821;1256;60296;-69
2023/09/23 10:18:40;;;;;;;10.70;5.30;;;;;;;37.39;26.16;100423.45;107945;1256;65059;-68
2023/09/23 10:21:08;;;;;;;15.10;5.40;;;;;;;37.28;25.95;100428.27;107882;1257;60680;-69
2023/09/23 10:23:35;;;;;;;13.50;5.60;;;;;;;36.90;26.10;100426.46;107895;1258;64049;-68
2023/09/23 10:26:18;;;;;;;9.10;5.30;;;;;;;36.93;26.22;100426.86;107844;1256;60436;-68
2023/09/23 10:29:04;;;;;;;12.60;5.20;;;;;;;37.20;25.77;100425.85;107856;1257;60293;-68
2023/09/23 10:31:32;;;;;;;10.90;4.90;;;;;;;37.36;25.13;100432.59;107930;1257;65134;-68
2023/09/23 10:34:06;;;;;;;10.40;5.00;;;;;;;37.57;25.08;100433.16;107862;1257;61851;-67
2023/09/23 10:36:33;;;;;;;12.50;5.60;;;;;;;37.88;24.97;100431.03;107906;1260;64181;-68
2023/09/23 10:39:06;;;;;;;19.70;5.80;;;;;;;38.04;24.86;100431.02;107530;1257;60447;-68
2023/09/23 10:41:36;;;;;;;13.00;4.90;;;;;;;37.87;24.71;100428.98;107687;1257;60307;-68
2023/09/23 10:44:03;;;;;;;19.00;5.30;;;;;;;37.51;25.11;100428.39;107735;1257;65296;-68
2023/09/23 10:46:31;;;;;;;15.20;5.90;;;;;;;37.46;25.21;100420.77;107742;1257;61616;-68
2023/09/23 10:48:58;;;;;;;11.70;5.80;;;;;;;37.77;24.82;100416.77;107697;1256;64191;-68
2023/09/23 10:51:25;;;;;;;20.70;6.70;;;;;;;37.82;24.80;100416.33;107954;1256;60726;-68
2023/09/23 10:53:52;;;;;;;12.60;5.20;;;;;;;37.83;24.94;100415.25;107991;1257;60403;-68
2023/09/23 10:56:20;;;;;;;13.30;5.20;;;;;;;37.44;25.42;100413.33;107921;1257;64122;-68
2023/09/23 10:58:50;;;;;;;11.60;4.70;;;;;;;37.57;25.42;100407.80;107980;1257;60677;-68
2023/09/23 11:01:18;;;;;;;;;;;;;;;37.69;25.05;100404.52;107771;1256;64838;-68
2023/09/23 11:03:45;;;;;;;21.10;5.60;;;;;;;37.69;24.50;100402.70;107707;1257;60211;-69
2023/09/23 11:06:15;;;;;;;17.10;4.70;;;;;;;37.84;24.41;100410.23;107716;1257;60313;-69
2023/09/23 11:08:42;;;;;;;10.60;4.90;;;;;;;37.45;25.26;100412.54;107880;1260;65159;-69
2023/09/23 11:11:11;;;;;;;9.00;5.10;;;;;;;37.30;25.45;100399.32;107932;1257;61773;-68
2023/09/23 11:13:38;;;;;;;11.20;5.70;;;;;;;37.41;25.24;100397.09;107935;1259;62744;-69
2023/09/23 11:16:09;;;;;;;10.80;5.20;;;;;;;37.63;24.95;100391.98;107935;1260;60376;-68
2023/09/23 11:18:36;;;;;;;9.10;4.50;;;;;;;37.71;23.90;100391.38;107878;1257;60421;-69
2023/09/23 11:21:03;;;;;;;11.40;5.20;;;;;;;37.57;23.90;100389.85;107935;1257;65472;-68